Share

Mukdahan, Thailand

Nakhon Phanom (VTUW) Elev 584 ft | 17.38 °N, 104.64 °E | Change Station

Current weather conditions updated 28 minutes ago

Mostly Cloudy
Mostly Cloudy
97 °F
Feels Like 107 °F
N
5
Wind Variable Wind from North
Sunrise 5:43 AM
Sunset 6:17 PM
Moon Waning Gibbous

Today is forecast to be nearly the same temperature as yesterday. A few thunderstorms possible.

Pressure 29.68 in
Visibility 3.7 miles
Clouds Few 2000 ft
Scattered Clouds 2500 ft
Mostly Cloudy 30000 ft
Heat Index 107 °F
Dew Point 73 °F
Humidity 47%
Rainfall 0.00 in
Snow Depth Not available.
UV 5 out of 16
Pollen Not available.
Air Quality Not available.
Flu Activity Not available.
METAR VTUW 190800Z 35004KT 6000 FEW020TCU SCT025 BKN300 36/23 Q1005 A2970 RWY15 TCU SW INFO I

More Conditions Fewer Conditions

Pressure 29.68 in
Visibility 3.7 miles
Clouds Few 2000 ft
Scattered Clouds 2500 ft
Mostly Cloudy 30000 ft
Heat Index 107 °F
Dew Point 73 °F
Humidity 47%
Rainfall 0.00 in
Snow Depth Not available.
UV 5 out of 16
Pollen Not available.
Air Quality Not available.
Flu Activity Not available.
METAR VTUW 190800Z 35004KT 6000 FEW020TCU SCT025 BKN300 36/23 Q1005 A2970 RWY15 TCU SW INFO I

More Conditions Fewer Conditions

10-Day Weather Forecast

Almanac

Astronomy

Apr. 19, 2014 Rise Set
Actual Time 5:43 AM ICT 6:17 PM ICT
Civil Twilight 5:21 AM ICT 6:39 PM ICT
Nautical Twilight 4:55 AM ICT 7:05 PM ICT
Astronomical Twilight 4:29 AM ICT 7:31 PM ICT
Moon 10:09 PM ICT 8:50 AM ICT
Length of Visible Light 13h 17m
Length of Day
12h 33m
Tomorrow will be 0m 52s longer.
Waning Gibbous, 81% of the Moon is Illuminated
Today
Waning Gibbous
Apr 22
Last Quarter
Apr 29
New
May 6
First Quarter
May 14
Full

Yesterday's Extremes

Country Highs Country Lows

Community

  • Sunset Silhouettes
    Sunset Silhouettes
  • FL sunset Perico Isle
    FL sunset Perico Isle
  • Cloudy spring view
    Cloudy spring view
  • Old barn
    Old barn
  • What's for Lunch?
    What's for Lunch?

WunderPhotos

Upload Photos

1,702,670 photos uploaded!

WunderBlogs® & News

Nearby

Snow Depth

Not available.

Coastal Water Temperatures

Place Temperature
No Stations Reporting

Earthquake Activity

City Distance Mag. Time & Date
No recent earthquake activity has been reported nearby.
Minimum magnitude displayed is 2.5.

Nearby Weather Stations

There are no personal weather stations in this area.

What do you think?

We're not finished. Please let us know what you like, what you don't like, and what you are still missing.